Wilson Landing, British Columbia

12:03 AM PDT on March 23, 2017 (GMT -0700)
AM1150 Weatherstation - Downtown | | Change Station

Elev 1150 ft 49.89 °N, 119.49 °W | Updated 8 days ago

Partly Cloudy
Partly Cloudy
47.1 °F
Feels Like 47 °F
N
1.0
Wind Variable Wind from WSW
Gusts 2.0 mph

Today
High -- | Low -- °F
--% Chance of Precip.
Yesterday
High -- | Low -- °F
Precip. -- in
Pressure 29.91 in
Visibility 9.0 miles
Clouds Few 2600 ft
Overcast 3300 ft
Windchill 47 °F
Dew Point 42 °F
Humidity 81%
Rainfall 0.03 in
Snow Depth Not available.
6:53 AM 7:16 PM
Waning Crescent, 25% visible
SPECI CYLW 230619Z AUTO 19010G20KT 150V210 9SM -RA FEW026 OVC033 06/03 A2987 RMK PRESRR SLP127
Pressure 29.91 in
Visibility 9.0 miles
Clouds Few 2600 ft
Overcast 3300 ft
Windchill 47 °F
Dew Point 42 °F
Humidity 81%
Rainfall 0.03 in
Snow Depth Not available.
6:53 AM 7:16 PM
Waning Crescent, 25% visible
SPECI CYLW 230619Z AUTO 19010G20KT 150V210 9SM -RA FEW026 OVC033 06/03 A2987 RMK PRESRR SLP127

Get Severe Weather Alerts

Thanks for signing up!

Be on the lookout for a verification email in your inbox.

You'll start receiving the daily forecast at 8 AM.

×

10-Day Weather Forecast

Almanac

Astronomy

Mar. 23, 2017 Rise Set
Actual Time
Civil Twilight
Nautical Twilight
Astronomical Twilight
Moon
Length of Visible Light
Length of Day
Tomorrow will be .
, % of the Moon is Illuminated

Today's Extremes

Country Highs Country Lows

Community

WunderPhotos

Upload Photos

1,962,540 photos uploaded!

WunderBlog® & News

Nearby

Air Quality

  Air Quality AQ Index Pollutant
Not available.

Snow Depth

Station Depth Elevation

Earthquake Activity

City Distance Mag. Time & Date
Minimum magnitude displayed is 2.5.

Earthquake Activity

City Distance Mag. Time & Date
Minimum magnitude displayed is 2.5.

Coastal Water Temperatures

Place Temperature

Stations

Nearby Weather Stations

Station Location Temp. Windchill Dew Point Humidity Wind Precip. Elev Updated Type
                   

Watches & Warnings

There are currently no watches in effect.